sensor_id;sensor_type;location;lat;lon;timestamp;pressure;altitude;pressure_sealevel;temperature;humidity
43488;BME280;29078;41.932;25.554;2022-09-16T00:01:17;98818.41;;;26.23;44.19
43488;BME280;29078;41.932;25.554;2022-09-16T00:03:44;98845.25;;;26.39;44.09
43488;BME280;29078;41.932;25.554;2022-09-16T00:06:19;98838.00;;;26.34;44.40
43488;BME280;29078;41.932;25.554;2022-09-16T00:08:47;98785.56;;;25.97;44.15
43488;BME280;29078;41.932;25.554;2022-09-16T00:11:13;98765.47;;;25.71;44.17
43488;BME280;29078;41.932;25.554;2022-09-16T00:13:39;98810.19;;;26.15;44.10
43488;BME280;29078;41.932;25.554;2022-09-16T00:16:10;98835.97;;;26.26;44.11
43488;BME280;29078;41.932;25.554;2022-09-16T00:18:36;98795.59;;;25.97;44.29
43488;BME280;29078;41.932;25.554;2022-09-16T00:21:01;98836.84;;;26.21;44.30
43488;BME280;29078;41.932;25.554;2022-09-16T00:23:26;98845.88;;;26.17;44.21
43488;BME280;29078;41.932;25.554;2022-09-16T00:25:53;98838.34;;;26.14;44.44
43488;BME280;29078;41.932;25.554;2022-09-16T00:28:20;98834.13;;;26.08;44.38
43488;BME280;29078;41.932;25.554;2022-09-16T00:30:49;98694.38;;;25.19;44.41
43488;BME280;29078;41.932;25.554;2022-09-16T00:33:16;98829.50;;;26.08;44.77
43488;BME280;29078;41.932;25.554;2022-09-16T00:35:41;98839.53;;;26.08;44.47
43488;BME280;29078;41.932;25.554;2022-09-16T00:38:07;98805.88;;;25.81;44.64
43488;BME280;29078;41.932;25.554;2022-09-16T00:40:33;98592.84;;;24.43;44.40
43488;BME280;29078;41.932;25.554;2022-09-16T00:42:58;98841.72;;;26.06;44.51
43488;BME280;29078;41.932;25.554;2022-09-16T00:45:25;98839.03;;;26.06;44.49
43488;BME280;29078;41.932;25.554;2022-09-16T00:47:59;98779.22;;;25.56;44.76
43488;BME280;29078;41.932;25.554;2022-09-16T00:50:31;98841.28;;;25.98;44.64
43488;BME280;29078;41.932;25.554;2022-09-16T00:53:01;98738.28;;;25.30;44.96
43488;BME280;29078;41.932;25.554;2022-09-16T00:55:28;98745.28;;;25.31;44.82
43488;BME280;29078;41.932;25.554;2022-09-16T00:58:00;98840.25;;;25.94;45.08
43488;BME280;29078;41.932;25.554;2022-09-16T01:00:26;98868.56;;;25.83;44.97
43488;BME280;29078;41.932;25.554;2022-09-16T01:02:52;98797.75;;;25.62;44.85
43488;BME280;29078;41.932;25.554;2022-09-16T01:05:21;98799.81;;;25.52;45.06
43488;BME280;29078;41.932;25.554;2022-09-16T01:07:49;98843.84;;;25.90;44.87
43488;BME280;29078;41.932;25.554;2022-09-16T01:10:18;98857.16;;;25.86;45.19
43488;BME280;29078;41.932;25.554;2022-09-16T01:12:46;98845.34;;;25.82;45.47
43488;BME280;29078;41.932;25.554;2022-09-16T01:15:13;98851.41;;;25.74;45.43
43488;BME280;29078;41.932;25.554;2022-09-16T01:20:58;98867.19;;;25.67;45.44
43488;BME280;29078;41.932;25.554;2022-09-16T01:42:43;98863.59;;;25.53;44.95
43488;BME280;29078;41.932;25.554;2022-09-16T01:45:54;98813.25;;;25.19;44.44
43488;BME280;29078;41.932;25.554;2022-09-16T01:51:29;98861.56;;;25.45;44.28
43488;BME280;29078;41.932;25.554;2022-09-16T01:54:04;98867.03;;;25.40;44.40
43488;BME280;29078;41.932;25.554;2022-09-16T01:56:41;98866.00;;;25.36;44.48
43488;BME280;29078;41.932;25.554;2022-09-16T01:59:24;98798.63;;;24.78;44.39
43488;BME280;29078;41.932;25.554;2022-09-16T02:02:03;98877.22;;;25.24;44.44
43488;BME280;29078;41.932;25.554;2022-09-16T02:04:34;98875.88;;;25.21;44.22
43488;BME280;29078;41.932;25.554;2022-09-16T02:07:03;98849.88;;;25.07;44.60
43488;BME280;29078;41.932;25.554;2022-09-16T02:09:34;98817.75;;;24.81;44.57
43488;BME280;29078;41.932;25.554;2022-09-16T02:12:05;98871.41;;;25.12;44.39
43488;BME280;29078;41.932;25.554;2022-09-16T02:14:37;98812.53;;;24.66;44.46
43488;BME280;29078;41.932;25.554;2022-09-16T02:17:07;98749.75;;;24.31;44.63
43488;BME280;29078;41.932;25.554;2022-09-16T02:19:48;98790.34;;;24.45;44.45
43488;BME280;29078;41.932;25.554;2022-09-16T02:22:28;98881.44;;;25.11;44.21
43488;BME280;29078;41.932;25.554;2022-09-16T02:24:58;98826.44;;;24.78;44.17
43488;BME280;29078;41.932;25.554;2022-09-16T02:27:26;98887.84;;;25.15;44.06
43488;BME280;29078;41.932;25.554;2022-09-16T02:30:03;98881.34;;;25.16;44.10
43488;BME280;29078;41.932;25.554;2022-09-16T02:32:33;98827.69;;;24.86;44.23
43488;BME280;29078;41.932;25.554;2022-09-16T02:35:00;98875.91;;;24.97;44.27
43488;BME280;29078;41.932;25.554;2022-09-16T02:37:32;98780.59;;;24.49;44.09
43488;BME280;29078;41.932;25.554;2022-09-16T02:40:10;98799.09;;;24.61;44.40
43488;BME280;29078;41.932;25.554;2022-09-16T02:42:38;98870.09;;;25.09;44.56
43488;BME280;29078;41.932;25.554;2022-09-16T02:45:03;98869.44;;;24.98;44.57
43488;BME280;29078;41.932;25.554;2022-09-16T02:47:32;98796.25;;;24.47;44.79
43488;BME280;29078;41.932;25.554;2022-09-16T02:57:52;98883.66;;;25.04;44.76
43488;BME280;29078;41.932;25.554;2022-09-16T03:00:17;98744.03;;;24.09;44.77
43488;BME280;29078;41.932;25.554;2022-09-16T03:02:43;98833.91;;;24.62;44.73
43488;BME280;29078;41.932;25.554;2022-09-16T03:05:08;98585.97;;;23.02;44.68
43488;BME280;29078;41.932;25.554;2022-09-16T03:07:35;98867.63;;;24.89;44.69
43488;BME280;29078;41.932;25.554;2022-09-16T03:10:01;98858.53;;;24.80;44.63
43488;BME280;29078;41.932;25.554;2022-09-16T03:12:49;98896.94;;;25.00;44.54
43488;BME280;29078;41.932;25.554;2022-09-16T03:21:19;98891.88;;;24.94;44.49
43488;BME280;29078;41.932;25.554;2022-09-16T03:24:04;98851.19;;;24.61;44.75
43488;BME280;29078;41.932;25.554;2022-09-16T03:31:46;98860.44;;;24.55;44.78
43488;BME280;29078;41.932;25.554;2022-09-16T03:34:35;98893.13;;;24.78;44.86
43488;BME280;29078;41.932;25.554;2022-09-16T03:37:04;98888.00;;;24.76;44.87
43488;BME280;29078;41.932;25.554;2022-09-16T03:39:31;98764.38;;;23.96;44.98
43488;BME280;29078;41.932;25.554;2022-09-16T03:42:01;98892.91;;;24.74;45.12
43488;BME280;29078;41.932;25.554;2022-09-16T03:44:35;98891.06;;;24.69;45.31
43488;BME280;29078;41.932;25.554;2022-09-16T03:47:02;98892.44;;;24.67;44.88
43488;BME280;29078;41.932;25.554;2022-09-16T03:49:28;98843.66;;;24.29;44.91
43488;BME280;29078;41.932;25.554;2022-09-16T03:51:55;98897.03;;;24.66;45.22
43488;BME280;29078;41.932;25.554;2022-09-16T03:54:20;98813.63;;;24.07;45.06
43488;BME280;29078;41.932;25.554;2022-09-16T03:56:46;98891.13;;;24.64;45.00
43488;BME280;29078;41.932;25.554;2022-09-16T03:59:11;98823.06;;;24.09;45.06
43488;BME280;29078;41.932;25.554;2022-09-16T04:01:37;98894.72;;;24.55;45.07
43488;BME280;29078;41.932;25.554;2022-09-16T04:04:02;98880.63;;;24.29;45.38
43488;BME280;29078;41.932;25.554;2022-09-16T04:06:28;98847.19;;;24.25;45.26
43488;BME280;29078;41.932;25.554;2022-09-16T04:08:54;98851.34;;;24.12;45.45
43488;BME280;29078;41.932;25.554;2022-09-16T04:11:21;98889.72;;;24.38;45.51
43488;BME280;29078;41.932;25.554;2022-09-16T04:13:46;98840.84;;;24.11;45.53
43488;BME280;29078;41.932;25.554;2022-09-16T04:16:18;98908.75;;;24.52;45.64
43488;BME280;29078;41.932;25.554;2022-09-16T04:18:44;98862.34;;;24.21;45.76
43488;BME280;29078;41.932;25.554;2022-09-16T04:21:09;98881.97;;;24.26;45.52
43488;BME280;29078;41.932;25.554;2022-09-16T04:23:35;98815.16;;;23.89;45.88
43488;BME280;29078;41.932;25.554;2022-09-16T04:26:01;98841.03;;;23.90;45.92
43488;BME280;29078;41.932;25.554;2022-09-16T04:28:28;98907.28;;;24.35;45.87
43488;BME280;29078;41.932;25.554;2022-09-16T04:31:01;98911.31;;;24.38;45.90
43488;BME280;29078;41.932;25.554;2022-09-16T04:33:29;98864.63;;;24.03;45.71
43488;BME280;29078;41.932;25.554;2022-09-16T04:36:04;98890.91;;;24.27;46.07
43488;BME280;29078;41.932;25.554;2022-09-16T04:38:30;98924.22;;;24.41;45.83
43488;BME280;29078;41.932;25.554;2022-09-16T04:41:03;98885.13;;;24.38;45.95
43488;BME280;29078;41.932;25.554;2022-09-16T04:43:29;98870.66;;;24.29;46.02
43488;BME280;29078;41.932;25.554;2022-09-16T04:45:54;98900.94;;;24.50;46.05
43488;BME280;29078;41.932;25.554;2022-09-16T04:48:20;98807.53;;;23.96;46.19
43488;BME280;29078;41.932;25.554;2022-09-16T04:50:45;98805.44;;;23.88;45.86
43488;BME280;29078;41.932;25.554;2022-09-16T04:53:11;98888.47;;;24.59;46.23
43488;BME280;29078;41.932;25.554;2022-09-16T04:55:36;98835.59;;;24.24;45.86
43488;BME280;29078;41.932;25.554;2022-09-16T04:58:02;98891.41;;;24.63;46.01
43488;BME280;29078;41.932;25.554;2022-09-16T05:00:27;98839.16;;;24.20;46.18
43488;BME280;29078;41.932;25.554;2022-09-16T05:02:53;98895.41;;;24.65;46.13
43488;BME280;29078;41.932;25.554;2022-09-16T05:05:19;98856.50;;;24.43;46.51
43488;BME280;29078;41.932;25.554;2022-09-16T05:07:45;98884.91;;;24.64;45.84
43488;BME280;29078;41.932;25.554;2022-09-16T05:10:10;98890.19;;;24.74;46.05
43488;BME280;29078;41.932;25.554;2022-09-16T05:12:36;98826.91;;;24.32;46.21
43488;BME280;29078;41.932;25.554;2022-09-16T05:15:02;98822.63;;;24.26;45.96
43488;BME280;29078;41.932;25.554;2022-09-16T05:17:30;98794.16;;;24.15;45.64
43488;BME280;29078;41.932;25.554;2022-09-16T05:19:56;98843.00;;;24.43;45.69
43488;BME280;29078;41.932;25.554;2022-09-16T05:22:22;98792.19;;;24.21;45.63
43488;BME280;29078;41.932;25.554;2022-09-16T05:24:48;98907.03;;;24.90;45.34
43488;BME280;29078;41.932;25.554;2022-09-16T05:27:14;98806.72;;;24.25;45.82
43488;BME280;29078;41.932;25.554;2022-09-16T05:29:40;98839.81;;;24.64;45.50
43488;BME280;29078;41.932;25.554;2022-09-16T05:32:05;98859.69;;;24.74;45.60
43488;BME280;29078;41.932;25.554;2022-09-16T05:34:32;98895.06;;;25.01;45.63
43488;BME280;29078;41.932;25.554;2022-09-16T05:36:57;98805.69;;;24.50;45.45
43488;BME280;29078;41.932;25.554;2022-09-16T05:39:24;98823.63;;;24.64;45.41
43488;BME280;29078;41.932;25.554;2022-09-16T05:41:53;98859.53;;;24.89;45.45
43488;BME280;29078;41.932;25.554;2022-09-16T05:44:19;98816.69;;;24.58;45.34
43488;BME280;29078;41.932;25.554;2022-09-16T05:46:46;98803.63;;;24.65;45.22
43488;BME280;29078;41.932;25.554;2022-09-16T05:49:11;98884.94;;;25.12;45.48
43488;BME280;29078;41.932;25.554;2022-09-16T05:51:38;98894.50;;;25.23;45.08
43488;BME280;29078;41.932;25.554;2022-09-16T05:54:04;98899.06;;;25.27;45.23
43488;BME280;29078;41.932;25.554;2022-09-16T05:56:29;98843.78;;;24.96;45.38
43488;BME280;29078;41.932;25.554;2022-09-16T05:58:59;98883.94;;;25.26;45.54
43488;BME280;29078;41.932;25.554;2022-09-16T06:01:31;98890.25;;;25.41;45.53
43488;BME280;29078;41.932;25.554;2022-09-16T06:03:59;98870.03;;;25.38;45.65
43488;BME280;29078;41.932;25.554;2022-09-16T06:06:36;98875.94;;;25.59;45.75
43488;BME280;29078;41.932;25.554;2022-09-16T06:09:12;98871.81;;;25.67;45.62
43488;BME280;29078;41.932;25.554;2022-09-16T06:11:43;98829.13;;;25.45;45.65
43488;BME280;29078;41.932;25.554;2022-09-16T06:14:09;98849.94;;;25.63;45.75
43488;BME280;29078;41.932;25.554;2022-09-16T06:16:35;98880.91;;;25.89;45.79
43488;BME280;29078;41.932;25.554;2022-09-16T06:19:03;98853.53;;;25.77;45.96
43488;BME280;29078;41.932;25.554;2022-09-16T06:21:29;98879.66;;;26.01;46.04
43488;BME280;29078;41.932;25.554;2022-09-16T06:23:55;98844.66;;;25.90;45.89
43488;BME280;29078;41.932;25.554;2022-09-16T06:26:23;98879.13;;;26.17;45.63
43488;BME280;29078;41.932;25.554;2022-09-16T06:28:49;98883.56;;;26.27;45.51
43488;BME280;29078;41.932;25.554;2022-09-16T06:31:20;98812.50;;;25.89;45.15
43488;BME280;29078;41.932;25.554;2022-09-16T06:33:46;98875.47;;;26.27;45.17
43488;BME280;29078;41.932;25.554;2022-09-16T06:36:16;98871.31;;;26.48;44.61
43488;BME280;29078;41.932;25.554;2022-09-16T06:38:44;98864.41;;;26.56;44.52
43488;BME280;29078;41.932;25.554;2022-09-16T06:41:11;98853.38;;;26.66;43.57
43488;BME280;29078;41.932;25.554;2022-09-16T06:43:37;98854.28;;;26.75;43.36
43488;BME280;29078;41.932;25.554;2022-09-16T06:46:05;98751.75;;;26.14;43.42
43488;BME280;29078;41.932;25.554;2022-09-16T06:48:32;98807.44;;;26.61;43.00
43488;BME280;29078;41.932;25.554;2022-09-16T06:51:05;98853.84;;;27.01;42.84
43488;BME280;29078;41.932;25.554;2022-09-16T06:53:31;98779.88;;;26.59;42.84
43488;BME280;29078;41.932;25.554;2022-09-16T06:56:02;98871.06;;;27.18;42.26
43488;BME280;29078;41.932;25.554;2022-09-16T06:58:31;98832.66;;;27.03;41.91
43488;BME280;29078;41.932;25.554;2022-09-16T07:00:57;98774.25;;;26.69;41.67
43488;BME280;29078;41.932;25.554;2022-09-16T07:03:22;98831.63;;;27.12;41.58
43488;BME280;29078;41.932;25.554;2022-09-16T07:05:58;98794.63;;;26.94;41.61
43488;BME280;29078;41.932;25.554;2022-09-16T07:08:28;98743.47;;;26.79;41.79
43488;BME280;29078;41.932;25.554;2022-09-16T07:10:57;98829.56;;;27.45;41.11
43488;BME280;29078;41.932;25.554;2022-09-16T07:13:23;98742.84;;;26.96;41.04
43488;BME280;29078;41.932;25.554;2022-09-16T07:15:49;98861.63;;;27.79;40.67
43488;BME280;29078;41.932;25.554;2022-09-16T07:18:14;98774.38;;;27.28;40.41
43488;BME280;29078;41.932;25.554;2022-09-16T07:20:40;98822.59;;;27.67;40.02
43488;BME280;29078;41.932;25.554;2022-09-16T07:23:05;98806.19;;;27.72;39.59
43488;BME280;29078;41.932;25.554;2022-09-16T07:25:30;98867.16;;;28.19;39.92
43488;BME280;29078;41.932;25.554;2022-09-16T07:27:56;98824.75;;;28.01;39.20
43488;BME280;29078;41.932;25.554;2022-09-16T07:30:22;98854.50;;;28.28;38.88
43488;BME280;29078;41.932;25.554;2022-09-16T07:32:47;98830.91;;;28.15;38.40
43488;BME280;29078;41.932;25.554;2022-09-16T07:35:12;98810.56;;;28.26;38.66
43488;BME280;29078;41.932;25.554;2022-09-16T07:37:38;98808.03;;;28.30;38.57
43488;BME280;29078;41.932;25.554;2022-09-16T07:40:03;98779.09;;;28.25;37.32
43488;BME280;29078;41.932;25.554;2022-09-16T07:42:29;98858.25;;;28.80;37.27
43488;BME280;29078;41.932;25.554;2022-09-16T07:44:55;98836.97;;;28.74;36.90
43488;BME280;29078;41.932;25.554;2022-09-16T07:47:20;98793.94;;;28.59;36.60
43488;BME280;29078;41.932;25.554;2022-09-16T07:49:46;98835.13;;;28.92;36.19
43488;BME280;29078;41.932;25.554;2022-09-16T07:52:12;98851.69;;;29.13;36.16
43488;BME280;29078;41.932;25.554;2022-09-16T07:54:37;98754.66;;;28.65;36.84
43488;BME280;29078;41.932;25.554;2022-09-16T07:57:03;98831.69;;;29.26;36.53
43488;BME280;29078;41.932;25.554;2022-09-16T07:59:28;98782.22;;;28.98;37.14
43488;BME280;29078;41.932;25.554;2022-09-16T08:01:54;98808.66;;;29.15;37.08
43488;BME280;29078;41.932;25.554;2022-09-16T08:04:19;98785.47;;;29.17;36.91
43488;BME280;29078;41.932;25.554;2022-09-16T08:06:45;98731.81;;;28.83;36.52
43488;BME280;29078;41.932;25.554;2022-09-16T08:09:11;98805.78;;;29.37;36.42
43488;BME280;29078;41.932;25.554;2022-09-16T08:11:36;98842.16;;;29.67;35.70
43488;BME280;29078;41.932;25.554;2022-09-16T08:14:02;98808.06;;;29.61;35.67
43488;BME280;29078;41.932;25.554;2022-09-16T08:16:28;98821.69;;;29.78;35.32
43488;BME280;29078;41.932;25.554;2022-09-16T08:18:55;98829.97;;;29.99;34.47
43488;BME280;29078;41.932;25.554;2022-09-16T08:21:24;98832.84;;;30.11;33.37
43488;BME280;29078;41.932;25.554;2022-09-16T08:23:50;98826.59;;;30.19;33.21
43488;BME280;29078;41.932;25.554;2022-09-16T08:26:17;98825.75;;;30.27;33.04
43488;BME280;29078;41.932;25.554;2022-09-16T08:28:44;98826.53;;;30.36;33.43
43488;BME280;29078;41.932;25.554;2022-09-16T08:31:10;98780.63;;;30.18;32.89
43488;BME280;29078;41.932;25.554;2022-09-16T08:33:38;98769.72;;;30.18;33.02
43488;BME280;29078;41.932;25.554;2022-09-16T08:36:06;98811.59;;;30.60;32.40
43488;BME280;29078;41.932;25.554;2022-09-16T08:38:34;98805.00;;;30.61;32.77
43488;BME280;29078;41.932;25.554;2022-09-16T08:44:13;98781.13;;;30.58;31.95
43488;BME280;29078;41.932;25.554;2022-09-16T08:46:54;98810.00;;;30.88;31.53
43488;BME280;29078;41.932;25.554;2022-09-16T08:49:36;98816.84;;;30.94;31.16
43488;BME280;29078;41.932;25.554;2022-09-16T08:52:04;98807.00;;;30.81;30.86
43488;BME280;29078;41.932;25.554;2022-09-16T08:54:41;98809.00;;;30.93;31.42
43488;BME280;29078;41.932;25.554;2022-09-16T08:57:31;98806.22;;;31.02;31.04
43488;BME280;29078;41.932;25.554;2022-09-16T09:00:19;98818.34;;;31.13;30.56
43488;BME280;29078;41.932;25.554;2022-09-16T09:05:34;98812.41;;;31.40;30.17
43488;BME280;29078;41.932;25.554;2022-09-16T09:11:00;98779.97;;;31.59;30.34
43488;BME280;29078;41.932;25.554;2022-09-16T09:24:30;98774.13;;;32.84;28.24
43488;BME280;29078;41.932;25.554;2022-09-16T09:27:14;98770.09;;;33.06;28.06
43488;BME280;29078;41.932;25.554;2022-09-16T09:30:01;98687.22;;;32.78;27.63
43488;BME280;29078;41.932;25.554;2022-09-16T09:40:36;98769.56;;;33.97;26.55
43488;BME280;29078;41.932;25.554;2022-09-16T09:43:29;98768.78;;;34.12;26.22
43488;BME280;29078;41.932;25.554;2022-09-16T09:46:01;98751.56;;;34.11;25.97
43488;BME280;29078;41.932;25.554;2022-09-16T09:48:38;98740.16;;;34.09;26.39
43488;BME280;29078;41.932;25.554;2022-09-16T09:51:13;98724.09;;;34.24;26.24
43488;BME280;29078;41.932;25.554;2022-09-16T09:53:43;98760.69;;;34.63;26.25
43488;BME280;29078;41.932;25.554;2022-09-16T09:56:22;98725.66;;;34.56;26.05
43488;BME280;29078;41.932;25.554;2022-09-16T10:01:17;98695.34;;;34.49;25.83
43488;BME280;29078;41.932;25.554;2022-09-16T10:03:43;98694.59;;;34.68;25.35
43488;BME280;29078;41.932;25.554;2022-09-16T10:06:10;98741.03;;;35.31;25.04
43488;BME280;29078;41.932;25.554;2022-09-16T10:08:47;98719.00;;;35.27;25.11
43488;BME280;29078;41.932;25.554;2022-09-16T10:11:19;98730.13;;;35.54;25.21
43488;BME280;29078;41.932;25.554;2022-09-16T10:13:49;98672.16;;;35.36;25.19
43488;BME280;29078;41.932;25.554;2022-09-16T10:16:17;98723.47;;;35.74;24.98
43488;BME280;29078;41.932;25.554;2022-09-16T10:21:24;98701.06;;;35.72;24.66
43488;BME280;29078;41.932;25.554;2022-09-16T10:23:55;98684.38;;;35.61;24.91
43488;BME280;29078;41.932;25.554;2022-09-16T10:26:27;98710.44;;;35.90;24.62
43488;BME280;29078;41.932;25.554;2022-09-16T10:29:13;98709.41;;;35.98;24.55
43488;BME280;29078;41.932;25.554;2022-09-16T10:31:39;98669.53;;;35.85;24.29
43488;BME280;29078;41.932;25.554;2022-09-16T10:34:33;98712.06;;;36.18;23.24
43488;BME280;29078;41.932;25.554;2022-09-16T10:37:19;98676.59;;;36.09;23.79
43488;BME280;29078;41.932;25.554;2022-09-16T10:39:55;98630.72;;;35.87;23.87
43488;BME280;29078;41.932;25.554;2022-09-16T10:42:25;98677.81;;;36.12;23.96
43488;BME280;29078;41.932;25.554;2022-09-16T10:45:12;98661.44;;;36.19;24.27
43488;BME280;29078;41.932;25.554;2022-09-16T10:47:39;98677.13;;;36.41;24.33
43488;BME280;29078;41.932;25.554;2022-09-16T10:50:06;98649.94;;;36.36;24.34
43488;BME280;29078;41.932;25.554;2022-09-16T10:52:43;98684.47;;;36.60;23.73
43488;BME280;29078;41.932;25.554;2022-09-16T10:55:32;98676.69;;;36.66;22.75
43488;BME280;29078;41.932;25.554;2022-09-16T10:58:08;98684.25;;;36.72;23.46
43488;BME280;29078;41.932;25.554;2022-09-16T11:17:39;98652.28;;;36.90;23.18
43488;BME280;29078;41.932;25.554;2022-09-16T11:26:03;98595.31;;;36.08;23.04
43488;BME280;29078;41.932;25.554;2022-09-16T11:31:43;98639.13;;;35.97;24.10
43488;BME280;29078;41.932;25.554;2022-09-16T11:40:30;98578.16;;;35.88;23.91
43488;BME280;29078;41.932;25.554;2022-09-16T11:48:52;98607.09;;;36.91;23.29
43488;BME280;29078;41.932;25.554;2022-09-16T11:57:00;98610.06;;;37.13;22.36
43488;BME280;29078;41.932;25.554;2022-09-16T11:59:34;98523.91;;;36.72;22.79
43488;BME280;29078;41.932;25.554;2022-09-16T12:02:14;98568.25;;;37.00;22.42
43488;BME280;29078;41.932;25.554;2022-09-16T12:04:48;98572.25;;;37.06;22.81
43488;BME280;29078;41.932;25.554;2022-09-16T12:10:00;98559.91;;;36.89;23.11
43488;BME280;29078;41.932;25.554;2022-09-16T12:12:46;98505.31;;;36.58;23.43
43488;BME280;29078;41.932;25.554;2022-09-16T12:15:17;98534.66;;;36.80;23.47
43488;BME280;29078;41.932;25.554;2022-09-16T12:17:51;98522.25;;;36.64;23.38
43488;BME280;29078;41.932;25.554;2022-09-16T12:20:18;98535.66;;;36.69;23.55
43488;BME280;29078;41.932;25.554;2022-09-16T12:22:49;98523.69;;;36.50;23.97
43488;BME280;29078;41.932;25.554;2022-09-16T12:27:50;98495.16;;;36.32;23.68
43488;BME280;29078;41.932;25.554;2022-09-16T12:30:26;98511.81;;;36.43;23.79
43488;BME280;29078;41.932;25.554;2022-09-16T12:33:11;98501.59;;;36.43;24.00
43488;BME280;29078;41.932;25.554;2022-09-16T12:35:55;98439.72;;;35.96;23.90
43488;BME280;29078;41.932;25.554;2022-09-16T12:38:21;98432.13;;;35.86;23.97
43488;BME280;29078;41.932;25.554;2022-09-16T12:57:12;98473.81;;;36.52;24.04
43488;BME280;29078;41.932;25.554;2022-09-16T13:00:01;98481.88;;;36.71;23.71
43488;BME280;29078;41.932;25.554;2022-09-16T13:02:35;98483.47;;;36.76;23.78
43488;BME280;29078;41.932;25.554;2022-09-16T13:05:10;98485.97;;;36.84;23.95
43488;BME280;29078;41.932;25.554;2022-09-16T13:07:37;98474.13;;;36.80;24.15
43488;BME280;29078;41.932;25.554;2022-09-16T13:10:30;98489.25;;;37.01;23.26
43488;BME280;29078;41.932;25.554;2022-09-16T13:12:59;98490.47;;;37.03;23.73
43488;BME280;29078;41.932;25.554;2022-09-16T13:15:27;98479.38;;;36.96;23.67
43488;BME280;29078;41.932;25.554;2022-09-16T13:17:54;98492.75;;;36.98;23.88
43488;BME280;29078;41.932;25.554;2022-09-16T13:20:33;98500.16;;;36.90;23.50
43488;BME280;29078;41.932;25.554;2022-09-16T13:23:22;98483.81;;;36.71;23.43
43488;BME280;29078;41.932;25.554;2022-09-16T13:38:49;98461.84;;;36.37;23.86
43488;BME280;29078;41.932;25.554;2022-09-16T13:41:30;98494.38;;;36.65;23.67
43488;BME280;29078;41.932;25.554;2022-09-16T13:43:56;98534.38;;;36.59;24.02
43488;BME280;29078;41.932;25.554;2022-09-16T13:51:43;98531.88;;;36.47;23.89
43488;BME280;29078;41.932;25.554;2022-09-16T13:54:31;98548.75;;;36.45;24.18
43488;BME280;29078;41.932;25.554;2022-09-16T13:57:24;98551.72;;;36.33;23.21
43488;BME280;29078;41.932;25.554;2022-09-16T14:13:19;98484.38;;;35.41;22.75
43488;BME280;29078;41.932;25.554;2022-09-16T14:15:48;98544.28;;;35.81;22.91
43488;BME280;29078;41.932;25.554;2022-09-16T14:18:21;98540.44;;;35.85;23.03
43488;BME280;29078;41.932;25.554;2022-09-16T14:23:21;98491.25;;;35.54;22.86
43488;BME280;29078;41.932;25.554;2022-09-16T14:25:47;98482.06;;;35.43;22.74
43488;BME280;29078;41.932;25.554;2022-09-16T14:28:20;98535.34;;;35.64;22.76
43488;BME280;29078;41.932;25.554;2022-09-16T14:30:56;98562.53;;;35.70;22.92
43488;BME280;29078;41.932;25.554;2022-09-16T14:33:28;98537.50;;;35.29;23.31
43488;BME280;29078;41.932;25.554;2022-09-16T14:35:56;98576.44;;;35.34;23.57
43488;BME280;29078;41.932;25.554;2022-09-16T14:38:35;98536.47;;;35.14;24.21
43488;BME280;29078;41.932;25.554;2022-09-16T14:41:08;98505.03;;;34.89;24.34
43488;BME280;29078;41.932;25.554;2022-09-16T14:43:36;98572.69;;;35.23;24.67
43488;BME280;29078;41.932;25.554;2022-09-16T14:46:05;98544.06;;;35.01;24.45
43488;BME280;29078;41.932;25.554;2022-09-16T14:48:37;98564.13;;;35.06;24.78
43488;BME280;29078;41.932;25.554;2022-09-16T14:51:13;98518.03;;;34.53;24.92
43488;BME280;29078;41.932;25.554;2022-09-16T14:53:56;98591.75;;;34.78;25.36
43488;BME280;29078;41.932;25.554;2022-09-16T14:56:22;98516.38;;;34.14;25.46
43488;BME280;29078;41.932;25.554;2022-09-16T14:58:49;98547.13;;;34.23;26.17
43488;BME280;29078;41.932;25.554;2022-09-16T15:01:23;98578.50;;;34.25;25.73
43488;BME280;29078;41.932;25.554;2022-09-16T15:03:54;98587.69;;;34.17;26.23
43488;BME280;29078;41.932;25.554;2022-09-16T15:06:28;98576.16;;;33.92;26.32
43488;BME280;29078;41.932;25.554;2022-09-16T15:09:02;98549.78;;;33.53;26.00
43488;BME280;29078;41.932;25.554;2022-09-16T15:11:44;98528.47;;;33.30;26.42
43488;BME280;29078;41.932;25.554;2022-09-16T15:14:10;98601.25;;;33.63;26.39
43488;BME280;29078;41.932;25.554;2022-09-16T15:16:44;98551.38;;;33.10;27.34
43488;BME280;29078;41.932;25.554;2022-09-16T15:19:30;98620.41;;;33.47;27.43
43488;BME280;29078;41.932;25.554;2022-09-16T15:21:57;98622.03;;;33.36;28.14
43488;BME280;29078;41.932;25.554;2022-09-16T15:24:28;98577.00;;;32.90;28.07
43488;BME280;29078;41.932;25.554;2022-09-16T15:26:56;98562.94;;;32.63;28.41
43488;BME280;29078;41.932;25.554;2022-09-16T15:31:49;98563.13;;;32.42;29.27
43488;BME280;29078;41.932;25.554;2022-09-16T15:39:45;98648.16;;;32.53;29.54
43488;BME280;29078;41.932;25.554;2022-09-16T15:42:18;98643.63;;;32.45;29.90
43488;BME280;29078;41.932;25.554;2022-09-16T15:44:56;98649.56;;;32.35;30.05
43488;BME280;29078;41.932;25.554;2022-09-16T15:47:27;98654.81;;;32.28;30.15
43488;BME280;29078;41.932;25.554;2022-09-16T15:50:07;98661.84;;;32.16;30.36
43488;BME280;29078;41.932;25.554;2022-09-16T15:55:29;98623.19;;;31.69;30.34
43488;BME280;29078;41.932;25.554;2022-09-16T15:58:16;98626.47;;;31.63;30.69
43488;BME280;29078;41.932;25.554;2022-09-16T16:04:01;98672.19;;;31.66;30.94
43488;BME280;29078;41.932;25.554;2022-09-16T16:12:00;98658.41;;;31.50;31.34
43488;BME280;29078;41.932;25.554;2022-09-16T16:14:28;98661.81;;;31.47;31.04
43488;BME280;29078;41.932;25.554;2022-09-16T16:16:59;98614.25;;;31.03;31.08
43488;BME280;29078;41.932;25.554;2022-09-16T16:19:25;98623.00;;;31.08;31.01
43488;BME280;29078;41.932;25.554;2022-09-16T16:21:52;98686.00;;;31.36;31.17
43488;BME280;29078;41.932;25.554;2022-09-16T16:24:18;98681.22;;;31.33;31.27